Time;durP1;ratioP1;P1;durP2;ratioP2;P2;SDS_P1;SDS_P2;PMS_P1;PMS_P2;Temp;Humidity;BMP_temperature;BMP_pressure;BME280_temperature;BME280_humidity;BME280_pressure;Samples;Min_cycle;Max_cycle;Signal;HPM_P1;HPM_P2
2023/10/04 00:00:37;;;;;;;8.18;3.30;;;;;;;;;;4932126;29;20038;-56
2023/10/04 00:03:02;;;;;;;10.30;3.65;;;;;;;;;;4935449;29;20384;-55
2023/10/04 00:05:30;;;;;;;10.43;3.30;;;;;;;;;;4936208;29;20050;-55
2023/10/04 00:07:56;;;;;;;9.10;3.22;;;;;;;;;;4934787;29;20024;-55
2023/10/04 00:10:26;;;;;;;10.32;3.33;;;;;;;;;;4934477;29;20086;-57
2023/10/04 00:12:55;;;;;;;8.95;3.55;;;;;;;;;;4954613;29;20381;-55
2023/10/04 00:15:25;;;;;;;7.25;3.33;;;;;;;;;;4952468;29;20035;-56
2023/10/04 00:17:52;;;;;;;7.70;3.37;;;;;;;;;;4934220;29;20035;-56
2023/10/04 00:20:19;;;;;;;10.23;3.67;;;;;;;;;;4933614;29;20282;-56
2023/10/04 00:22:49;;;;;;;13.77;3.70;;;;;;;;;;4934497;29;20068;-57
2023/10/04 00:25:23;;;;;;;8.73;3.50;;;;;;;;;;4914564;29;20036;-54
2023/10/04 00:27:56;;;;;;;8.93;3.53;;;;;;;;;;4935206;29;20035;-55
2023/10/04 00:30:26;;;;;;;11.90;3.35;;;;;;;;;;4931202;29;20039;-56
2023/10/04 00:32:53;;;;;;;8.10;3.40;;;;;;;;;;4916187;29;20400;-55
2023/10/04 00:35:19;;;;;;;8.73;3.42;;;;;;;;;;4931482;29;20039;-55
2023/10/04 00:37:50;;;;;;;9.98;3.40;;;;;;;;;;4917847;29;20070;-56
2023/10/04 00:40:21;;;;;;;7.50;3.08;;;;;;;;;;4932508;29;20448;-55
2023/10/04 00:42:48;;;;;;;7.40;3.38;;;;;;;;;;4934019;29;20046;-55
2023/10/04 00:45:14;;;;;;;7.97;3.40;;;;;;;;;;4934688;29;20067;-58
2023/10/04 00:47:51;;;;;;;10.10;3.80;;;;;;;;;;4937606;29;20043;-56
2023/10/04 00:50:22;;;;;;;12.30;3.60;;;;;;;;;;4916973;29;20044;-57
2023/10/04 00:52:53;;;;;;;10.35;4.03;;;;;;;;;;4918375;29;20485;-56
2023/10/04 00:55:20;;;;;;;;;;;;;;;;;;4934154;29;20039;-55
2023/10/04 00:57:49;;;;;;;8.20;3.20;;;;;;;;;;4932146;29;20386;-55
2023/10/04 01:00:15;;;;;;;12.25;3.17;;;;;;;;;;4916379;29;20408;-56
2023/10/04 01:02:41;;;;;;;9.88;3.45;;;;;;;;;;4917445;29;20137;-57
2023/10/04 01:05:07;;;;;;;9.68;3.15;;;;;;;;;;4932869;29;20032;-56
2023/10/04 01:07:35;;;;;;;6.88;2.70;;;;;;;;;;4932510;29;20039;-58
2023/10/04 01:10:01;;;;;;;6.70;3.03;;;;;;;;;;4933137;29;20060;-56
2023/10/04 01:12:26;;;;;;;12.07;3.35;;;;;;;;;;4932706;29;20040;-54
2023/10/04 01:14:53;;;;;;;5.93;2.78;;;;;;;;;;4933675;29;20064;-54
2023/10/04 01:17:20;;;;;;;9.82;3.17;;;;;;;;;;4915821;29;20415;-56
2023/10/04 01:19:46;;;;;;;8.40;3.00;;;;;;;;;;4931372;29;20376;-55
2023/10/04 01:22:11;;;;;;;8.10;3.00;;;;;;;;;;4933078;29;20202;-55
2023/10/04 01:24:41;;;;;;;10.10;3.47;;;;;;;;;;4932381;29;20935;-55
2023/10/04 01:27:10;;;;;;;10.77;3.00;;;;;;;;;;4932964;29;20031;-53
2023/10/04 01:29:38;;;;;;;10.23;3.75;;;;;;;;;;4931958;29;20753;-55
2023/10/04 01:32:05;;;;;;;10.75;3.33;;;;;;;;;;4932134;29;20059;-55
2023/10/04 01:34:30;;;;;;;11.15;3.28;;;;;;;;;;4932781;29;20035;-57
2023/10/04 01:36:56;;;;;;;11.40;3.17;;;;;;;;;;4932926;29;20141;-55
2023/10/04 01:39:22;;;;;;;9.25;3.25;;;;;;;;;;4931717;29;20103;-55
2023/10/04 01:41:49;;;;;;;10.90;3.60;;;;;;;;;;4916038;29;20042;-51
2023/10/04 01:44:15;;;;;;;9.32;3.20;;;;;;;;;;4932120;29;20127;-58
2023/10/04 01:46:41;;;;;;;12.18;3.40;;;;;;;;;;4923036;29;20044;-56
2023/10/04 01:49:07;;;;;;;11.95;3.33;;;;;;;;;;4936236;29;20032;-55
2023/10/04 01:51:33;;;;;;;9.68;3.28;;;;;;;;;;4936297;29;20043;-55
2023/10/04 01:54:00;;;;;;;8.02;3.10;;;;;;;;;;4935350;29;20051;-55
2023/10/04 01:56:26;;;;;;;9.50;3.47;;;;;;;;;;4942151;29;20118;-53
2023/10/04 01:58:51;;;;;;;8.32;2.97;;;;;;;;;;4939986;29;20140;-56
2023/10/04 02:01:17;;;;;;;10.10;3.33;;;;;;;;;;4935370;29;20035;-57
2023/10/04 02:03:42;;;;;;;8.63;3.25;;;;;;;;;;4919420;29;20047;-55
2023/10/04 02:06:09;;;;;;;8.18;3.13;;;;;;;;;;4937012;29;20039;-54
2023/10/04 02:08:34;;;;;;;10.50;3.30;;;;;;;;;;4934714;29;20088;-56
2023/10/04 02:11:00;;;;;;;9.45;3.08;;;;;;;;;;4936888;29;20051;-55
2023/10/04 02:13:27;;;;;;;9.38;3.22;;;;;;;;;;4936253;29;20039;-57
2023/10/04 02:15:53;;;;;;;9.45;3.22;;;;;;;;;;4935123;29;20036;-57
2023/10/04 02:18:20;;;;;;;9.98;3.42;;;;;;;;;;4936495;29;20544;-57
2023/10/04 02:20:49;;;;;;;7.80;3.10;;;;;;;;;;4935125;29;20035;-56
2023/10/04 02:23:18;;;;;;;8.77;2.95;;;;;;;;;;4919563;29;20127;-57
2023/10/04 02:25:44;;;;;;;12.13;3.20;;;;;;;;;;4936372;29;20032;-54
2023/10/04 02:28:11;;;;;;;11.20;3.40;;;;;;;;;;4936501;29;20043;-57
2023/10/04 02:30:40;;;;;;;9.88;3.15;;;;;;;;;;4935261;29;20036;-57
2023/10/04 02:33:13;;;;;;;8.75;3.17;;;;;;;;;;4935556;29;20031;-54
2023/10/04 02:35:46;;;;;;;10.52;3.55;;;;;;;;;;4935873;29;20054;-55
2023/10/04 02:38:26;;;;;;;8.80;3.10;;;;;;;;;;4935464;29;20043;-57
2023/10/04 02:40:55;;;;;;;9.43;3.15;;;;;;;;;;4934797;29;20473;-54
2023/10/04 02:43:22;;;;;;;10.57;3.40;;;;;;;;;;4935625;29;20039;-58
2023/10/04 02:45:50;;;;;;;12.52;3.13;;;;;;;;;;4920618;29;20031;-51
2023/10/04 02:48:15;;;;;;;10.30;2.90;;;;;;;;;;4935518;29;20043;-56
2023/10/04 02:50:41;;;;;;;12.40;3.40;;;;;;;;;;4935240;29;20313;-56
2023/10/04 02:53:13;;;;;;;12.63;2.90;;;;;;;;;;4936747;29;20047;-55
2023/10/04 02:55:40;;;;;;;7.70;3.20;;;;;;;;;;4917667;29;20109;-54
2023/10/04 02:58:06;;;;;;;14.82;3.40;;;;;;;;;;4915925;29;20046;-58
2023/10/04 03:00:33;;;;;;;11.95;3.40;;;;;;;;;;4921834;29;20055;-55
2023/10/04 03:02:59;;;;;;;7.95;2.90;;;;;;;;;;4933412;29;20036;-57
2023/10/04 03:05:29;;;;;;;7.38;2.90;;;;;;;;;;4931885;29;20464;-56
2023/10/04 03:07:54;;;;;;;11.02;3.45;;;;;;;;;;4932085;29;20469;-59
2023/10/04 03:10:26;;;;;;;11.15;3.05;;;;;;;;;;4918136;29;20051;-57
2023/10/04 03:12:58;;;;;;;11.90;3.40;;;;;;;;;;4935419;29;20031;-56
2023/10/04 03:15:24;;;;;;;7.25;2.95;;;;;;;;;;4933516;29;20042;-57
2023/10/04 03:17:53;;;;;;;11.05;3.40;;;;;;;;;;4935390;29;20023;-56
2023/10/04 03:20:20;;;;;;;12.25;3.33;;;;;;;;;;4935092;29;20139;-55
2023/10/04 03:22:50;;;;;;;8.30;3.22;;;;;;;;;;4917372;29;20051;-56
2023/10/04 03:25:20;;;;;;;9.90;2.95;;;;;;;;;;4934967;29;20237;-55
2023/10/04 03:27:48;;;;;;;11.52;3.35;;;;;;;;;;4901582;29;20047;-56
2023/10/04 03:30:14;;;;;;;14.73;3.88;;;;;;;;;;4935499;29;20039;-56
2023/10/04 03:32:56;;;;;;;5.88;2.88;;;;;;;;;;4934481;29;20403;-56
2023/10/04 03:35:26;;;;;;;8.48;3.50;;;;;;;;;;4917631;29;20036;-59
2023/10/04 03:37:58;;;;;;;10.32;3.15;;;;;;;;;;4934169;29;20165;-53
2023/10/04 03:40:23;;;;;;;7.30;3.00;;;;;;;;;;4935449;29;20429;-58
2023/10/04 03:42:49;;;;;;;10.40;3.50;;;;;;;;;;4934246;29;20035;-55
2023/10/04 03:45:18;;;;;;;14.13;3.45;;;;;;;;;;4933743;29;20393;-55
2023/10/04 03:47:44;;;;;;;9.40;4.00;;;;;;;;;;4937538;29;20484;-52
2023/10/04 03:50:11;;;;;;;6.93;3.28;;;;;;;;;;4920471;29;20040;-60
2023/10/04 03:52:38;;;;;;;9.38;3.25;;;;;;;;;;4916775;29;20043;-54
2023/10/04 03:55:06;;;;;;;10.10;3.40;;;;;;;;;;4935170;29;20047;-52
2023/10/04 03:57:33;;;;;;;9.88;3.40;;;;;;;;;;4934230;29;20124;-56
2023/10/04 04:00:10;;;;;;;9.40;3.13;;;;;;;;;;4933470;29;20492;-53
2023/10/04 04:02:36;;;;;;;11.40;3.40;;;;;;;;;;4933288;29;20042;-52
2023/10/04 04:05:04;;;;;;;9.30;3.42;;;;;;;;;;4934541;29;20047;-54
2023/10/04 04:07:30;;;;;;;9.70;3.13;;;;;;;;;;4932410;29;20054;-53
2023/10/04 04:09:55;;;;;;;10.48;3.63;;;;;;;;;;4933733;29;20481;-58
2023/10/04 04:12:21;;;;;;;11.18;3.53;;;;;;;;;;4917875;29;20031;-57
2023/10/04 04:14:48;;;;;;;12.18;3.40;;;;;;;;;;4933686;29;20044;-56
2023/10/04 04:17:13;;;;;;;10.07;3.70;;;;;;;;;;4933917;29;20031;-57
2023/10/04 04:19:39;;;;;;;13.18;3.78;;;;;;;;;;4933546;29;20449;-54
2023/10/04 04:22:05;;;;;;;9.75;3.80;;;;;;;;;;4933433;29;20043;-57
2023/10/04 04:24:31;;;;;;;11.52;3.58;;;;;;;;;;4932132;29;20374;-56
2023/10/04 04:27:00;;;;;;;9.50;3.15;;;;;;;;;;4934571;29;20151;-56
2023/10/04 04:29:27;;;;;;;19.25;4.10;;;;;;;;;;4935147;29;20039;-58
2023/10/04 04:31:53;;;;;;;12.68;3.80;;;;;;;;;;4932970;29;20484;-55
2023/10/04 04:34:18;;;;;;;8.88;3.40;;;;;;;;;;4934774;29;20043;-55
2023/10/04 04:36:46;;;;;;;12.38;3.60;;;;;;;;;;4933690;29;20622;-62
2023/10/04 04:39:16;;;;;;;9.77;4.10;;;;;;;;;;4941949;29;20089;-57
2023/10/04 04:41:42;;;;;;;9.13;3.63;;;;;;;;;;4937145;29;20031;-56
2023/10/04 04:44:08;;;;;;;11.95;4.03;;;;;;;;;;4935748;29;20035;-56
2023/10/04 04:46:34;;;;;;;11.90;4.07;;;;;;;;;;4946768;29;20069;-52
2023/10/04 04:49:00;;;;;;;13.68;4.47;;;;;;;;;;4954074;29;20031;-55
2023/10/04 04:51:26;;;;;;;10.13;4.13;;;;;;;;;;4953685;29;20090;-57
2023/10/04 04:53:51;;;;;;;14.93;3.58;;;;;;;;;;4940631;29;20044;-57
2023/10/04 04:56:18;;;;;;;14.48;4.25;;;;;;;;;;4934684;29;20031;-54
2023/10/04 04:58:47;;;;;;;9.52;4.30;;;;;;;;;;4916532;29;20457;-56
2023/10/04 05:01:14;;;;;;;10.40;3.80;;;;;;;;;;4917607;29;20035;-57
2023/10/04 05:03:41;;;;;;;9.32;3.83;;;;;;;;;;4922804;29;20023;-55
2023/10/04 05:06:09;;;;;;;15.07;4.70;;;;;;;;;;4951207;29;20027;-58
2023/10/04 05:08:36;;;;;;;12.18;3.70;;;;;;;;;;4934775;29;20024;-55
2023/10/04 05:11:06;;;;;;;9.50;4.00;;;;;;;;;;4953774;29;20073;-55
2023/10/04 05:13:33;;;;;;;11.75;4.47;;;;;;;;;;4943924;29;20067;-57
2023/10/04 05:16:00;;;;;;;11.27;4.10;;;;;;;;;;4936477;29;20031;-55
2023/10/04 05:18:26;;;;;;;14.15;4.43;;;;;;;;;;4953755;29;20472;-55
2023/10/04 05:20:53;;;;;;;11.38;4.30;;;;;;;;;;4952092;29;20046;-56
2023/10/04 05:23:21;;;;;;;11.20;4.22;;;;;;;;;;4951460;29;20031;-55
2023/10/04 05:25:48;;;;;;;14.27;4.47;;;;;;;;;;4952465;29;20598;-56
2023/10/04 05:28:14;;;;;;;13.02;4.57;;;;;;;;;;4934649;29;20043;-59
2023/10/04 05:30:41;;;;;;;13.30;4.18;;;;;;;;;;4931793;29;20472;-58
2023/10/04 05:33:08;;;;;;;13.23;4.47;;;;;;;;;;4933145;29;20114;-60
2023/10/04 05:35:35;;;;;;;12.52;4.00;;;;;;;;;;4929501;29;20044;-60
2023/10/04 05:38:03;;;;;;;12.55;4.10;;;;;;;;;;4933009;29;20083;-61
2023/10/04 05:40:30;;;;;;;12.98;4.30;;;;;;;;;;4917142;29;20119;-60
2023/10/04 05:42:56;;;;;;;10.38;4.43;;;;;;;;;;4933347;29;20130;-60
2023/10/04 05:45:23;;;;;;;18.23;4.32;;;;;;;;;;4934178;29;20118;-60
2023/10/04 05:47:50;;;;;;;14.10;4.28;;;;;;;;;;4933088;29;20109;-60
2023/10/04 05:50:23;;;;;;;10.30;4.22;;;;;;;;;;4933914;29;20122;-60
2023/10/04 05:52:49;;;;;;;13.70;4.60;;;;;;;;;;4915903;29;20040;-60
2023/10/04 05:55:16;;;;;;;14.00;4.45;;;;;;;;;;4933962;29;20106;-60
2023/10/04 05:57:46;;;;;;;15.65;4.70;;;;;;;;;;4933061;29;20035;-60
2023/10/04 06:00:33;;;;;;;15.85;4.85;;;;;;;;;;4933985;29;20472;-60
2023/10/04 06:03:00;;;;;;;11.55;3.92;;;;;;;;;;4931841;29;20039;-61
2023/10/04 06:05:31;;;;;;;13.80;4.60;;;;;;;;;;4933450;29;20048;-60
2023/10/04 06:07:57;;;;;;;12.80;3.88;;;;;;;;;;4933361;29;20035;-60
2023/10/04 06:10:24;;;;;;;16.77;4.53;;;;;;;;;;4924262;29;20060;-60
2023/10/04 06:12:54;;;;;;;14.50;3.90;;;;;;;;;;4922667;29;20172;-60
2023/10/04 06:15:20;;;;;;;11.13;4.18;;;;;;;;;;4933989;29;20044;-61
2023/10/04 06:17:50;;;;;;;10.02;4.07;;;;;;;;;;4923466;29;20032;-59
2023/10/04 06:20:50;;;;;;;16.70;4.13;;;;;;;;;;4915083;29;20083;-60
2023/10/04 06:23:11;;;;;;;14.52;4.40;;;;;;;;;;4910877;29;20481;-60
2023/10/04 06:25:44;;;;;;;14.13;4.50;;;;;;;;;;4905193;29;20172;-60
2023/10/04 06:28:10;;;;;;;17.50;5.35;;;;;;;;;;4929386;29;20028;-60
2023/10/04 06:30:36;;;;;;;10.27;3.90;;;;;;;;;;4929749;29;20036;-61
2023/10/04 06:33:12;;;;;;;13.52;4.40;;;;;;;;;;4922135;29;20409;-59
2023/10/04 06:35:38;;;;;;;14.23;4.32;;;;;;;;;;4917288;29;20083;-60
2023/10/04 06:38:06;;;;;;;15.05;4.47;;;;;;;;;;4918163;29;20477;-60
2023/10/04 06:40:32;;;;;;;19.75;4.88;;;;;;;;;;4927426;29;20445;-61
2023/10/04 06:42:59;;;;;;;13.30;4.50;;;;;;;;;;4928280;29;20032;-60
2023/10/04 06:45:28;;;;;;;13.27;4.43;;;;;;;;;;4920257;29;20437;-60
2023/10/04 06:47:55;;;;;;;14.05;4.45;;;;;;;;;;4924022;29;20036;-60
2023/10/04 06:50:22;;;;;;;15.10;4.88;;;;;;;;;;4926586;29;20531;-60
2023/10/04 06:52:52;;;;;;;13.13;4.25;;;;;;;;;;4908568;29;20035;-60
2023/10/04 06:55:20;;;;;;;12.93;4.55;;;;;;;;;;4912469;29;20092;-60
2023/10/04 06:57:47;;;;;;;14.27;4.72;;;;;;;;;;4902899;29;20396;-60
2023/10/04 07:00:15;;;;;;;15.13;4.72;;;;;;;;;;4900944;29;20044;-61
2023/10/04 07:03:01;;;;;;;20.83;4.60;;;;;;;;;;4915336;29;20084;-58
2023/10/04 07:05:38;;;;;;;11.00;4.30;;;;;;;;;;4916112;29;20051;-58
2023/10/04 07:08:06;;;;;;;10.93;4.13;;;;;;;;;;4917363;29;20044;-61
2023/10/04 07:10:32;;;;;;;13.82;4.50;;;;;;;;;;4929620;29;20063;-60
2023/10/04 07:13:00;;;;;;;14.65;4.53;;;;;;;;;;4923031;29;20048;-60
2023/10/04 07:15:36;;;;;;;12.02;4.50;;;;;;;;;;4927016;29;20063;-60
2023/10/04 07:18:10;;;;;;;15.60;4.07;;;;;;;;;;4925085;29;20115;-60
2023/10/04 07:20:36;;;;;;;9.98;4.43;;;;;;;;;;4916807;29;20084;-61
2023/10/04 07:23:03;;;;;;;14.13;4.38;;;;;;;;;;4919392;29;20492;-57
2023/10/04 07:25:37;;;;;;;18.25;4.88;;;;;;;;;;4926946;29;20036;-60
2023/10/04 07:28:09;;;;;;;19.30;4.63;;;;;;;;;;4917413;29;20064;-57
2023/10/04 07:30:35;;;;;;;13.27;4.32;;;;;;;;;;4924482;29;20035;-60
2023/10/04 07:33:01;;;;;;;12.40;4.20;;;;;;;;;;4936521;29;20036;-60
2023/10/04 07:35:28;;;;;;;15.85;4.25;;;;;;;;;;4926461;29;20043;-61
2023/10/04 07:37:55;;;;;;;16.48;4.35;;;;;;;;;;4916836;29;20046;-61
2023/10/04 07:40:23;;;;;;;14.27;4.65;;;;;;;;;;4921798;29;20039;-63
2023/10/04 07:42:53;;;;;;;12.88;4.10;;;;;;;;;;4917956;29;20044;-60
2023/10/04 07:45:21;;;;;;;11.45;4.10;;;;;;;;;;4929757;29;20048;-61
2023/10/04 07:47:46;;;;;;;11.10;4.50;;;;;;;;;;4916023;29;20064;-56
2023/10/04 07:50:15;;;;;;;11.68;4.28;;;;;;;;;;4931437;29;20441;-60
2023/10/04 07:52:42;;;;;;;12.52;4.57;;;;;;;;;;4903077;29;20051;-60
2023/10/04 07:55:18;;;;;;;16.40;4.70;;;;;;;;;;4901986;29;20024;-60
2023/10/04 07:57:48;;;;;;;15.98;4.05;;;;;;;;;;4916048;29;20082;-60
2023/10/04 08:00:15;;;;;;;14.57;4.35;;;;;;;;;;4916601;29;20516;-59
2023/10/04 08:02:50;;;;;;;10.77;4.43;;;;;;;;;;4925775;29;20036;-60
2023/10/04 08:05:26;;;;;;;14.20;4.57;;;;;;;;;;4919883;29;20517;-61
2023/10/04 08:07:57;;;;;;;9.57;3.78;;;;;;;;;;4922725;29;20031;-59
2023/10/04 08:10:25;;;;;;;14.52;4.43;;;;;;;;;;4932888;29;20055;-60
2023/10/04 08:12:55;;;;;;;14.65;4.05;;;;;;;;;;4934319;29;20694;-60
2023/10/04 08:15:22;;;;;;;10.32;4.40;;;;;;;;;;4918530;29;20051;-60
2023/10/04 08:17:48;;;;;;;14.25;4.28;;;;;;;;;;4917538;29;20031;-60
2023/10/04 08:20:18;;;;;;;14.85;4.65;;;;;;;;;;4934490;29;20107;-60
2023/10/04 08:22:44;;;;;;;13.98;4.05;;;;;;;;;;4936402;29;20039;-60
2023/10/04 08:25:13;;;;;;;11.20;4.07;;;;;;;;;;4947396;29;20047;-59
2023/10/04 08:27:39;;;;;;;13.30;4.07;;;;;;;;;;4929073;29;20079;-59
2023/10/04 08:30:12;;;;;;;14.75;4.28;;;;;;;;;;4934695;29;20032;-60
2023/10/04 08:32:42;;;;;;;13.20;4.10;;;;;;;;;;4934252;29;20037;-61
2023/10/04 08:35:21;;;;;;;17.88;4.63;;;;;;;;;;4932584;29;20036;-60
2023/10/04 08:37:54;;;;;;;12.60;3.63;;;;;;;;;;4934435;29;20078;-59
2023/10/04 08:40:24;;;;;;;11.23;3.67;;;;;;;;;;4934912;29;20083;-58
2023/10/04 08:42:52;;;;;;;13.55;3.75;;;;;;;;;;4913123;29;20032;-58
2023/10/04 08:45:18;;;;;;;12.27;3.47;;;;;;;;;;4934592;29;20076;-56
2023/10/04 08:47:52;;;;;;;11.07;4.13;;;;;;;;;;4934156;29;20044;-60
2023/10/04 08:50:51;;;;;;;11.75;3.97;;;;;;;;;;4933189;29;20027;-59
2023/10/04 08:53:38;;;;;;;11.65;3.70;;;;;;;;;;4893984;29;20385;-58
2023/10/04 08:56:08;;;;;;;14.88;3.80;;;;;;;;;;4934317;29;20035;-59
2023/10/04 08:58:36;;;;;;;10.57;3.47;;;;;;;;;;4934096;29;20389;-61
2023/10/04 09:01:04;;;;;;;13.82;3.92;;;;;;;;;;4933272;29;20487;-59
2023/10/04 09:03:30;;;;;;;9.65;3.38;;;;;;;;;;4931686;29;20032;-59
2023/10/04 09:05:56;;;;;;;12.57;3.50;;;;;;;;;;4932712;29;20036;-59
2023/10/04 09:08:24;;;;;;;10.63;3.25;;;;;;;;;;4932850;29;20034;-62
2023/10/04 09:10:53;;;;;;;7.95;3.20;;;;;;;;;;4935689;29;20559;-60
2023/10/04 09:13:18;;;;;;;10.63;3.30;;;;;;;;;;4934546;29;20036;-59
2023/10/04 09:15:44;;;;;;;13.40;3.15;;;;;;;;;;4939259;29;20405;-59
2023/10/04 09:18:09;;;;;;;9.70;3.75;;;;;;;;;;4937715;29;20040;-59
2023/10/04 09:20:36;;;;;;;15.13;4.10;;;;;;;;;;4933433;29;20043;-62
2023/10/04 09:23:15;;;;;;;11.50;3.95;;;;;;;;;;4942825;29;20030;-59
2023/10/04 09:25:41;;;;;;;12.63;4.00;;;;;;;;;;4933682;29;20076;-59
2023/10/04 09:28:12;;;;;;;12.20;4.10;;;;;;;;;;4917472;29;20111;-60
2023/10/04 09:30:37;;;;;;;13.20;4.30;;;;;;;;;;4932680;29;20284;-57
2023/10/04 09:33:28;;;;;;;9.80;3.60;;;;;;;;;;4931443;29;20718;-62
2023/10/04 09:35:54;;;;;;;12.48;4.20;;;;;;;;;;4927160;29;20126;-60
2023/10/04 09:38:21;;;;;;;10.60;4.03;;;;;;;;;;4952374;29;20110;-60
2023/10/04 09:40:55;;;;;;;14.07;4.97;;;;;;;;;;4940349;29;20068;-60
2023/10/04 09:43:36;;;;;;;11.32;4.45;;;;;;;;;;4946797;29;20071;-60
2023/10/04 09:46:07;;;;;;;14.18;4.43;;;;;;;;;;4936506;29;20056;-59
2023/10/04 09:48:36;;;;;;;15.60;4.38;;;;;;;;;;4953012;29;20032;-60
2023/10/04 09:51:05;;;;;;;14.52;4.72;;;;;;;;;;4940424;29;20093;-60
2023/10/04 09:53:31;;;;;;;11.75;4.03;;;;;;;;;;4934028;29;20051;-60
2023/10/04 09:56:04;;;;;;;14.15;5.10;;;;;;;;;;4939389;29;20036;-61
2023/10/04 09:58:31;;;;;;;11.50;4.28;;;;;;;;;;4953962;29;20031;-60
2023/10/04 10:01:09;;;;;;;15.98;4.70;;;;;;;;;;4939281;29;20039;-59
2023/10/04 10:03:43;;;;;;;10.95;4.28;;;;;;;;;;4933596;29;20036;-60
2023/10/04 10:06:11;;;;;;;12.13;4.35;;;;;;;;;;4935421;29;20131;-60
2023/10/04 10:08:42;;;;;;;11.27;4.10;;;;;;;;;;4935255;29;20045;-60
2023/10/04 10:11:10;;;;;;;13.93;3.85;;;;;;;;;;4937563;29;20055;-60
2023/10/04 10:13:37;;;;;;;13.43;4.10;;;;;;;;;;4956295;29;20027;-60
2023/10/04 10:16:03;;;;;;;12.35;4.20;;;;;;;;;;4919100;29;20084;-56
2023/10/04 10:18:29;;;;;;;9.52;4.00;;;;;;;;;;4937450;29;20031;-57
2023/10/04 10:20:57;;;;;;;11.52;4.40;;;;;;;;;;4936650;29;20496;-59
2023/10/04 10:23:22;;;;;;;10.90;4.25;;;;;;;;;;4919893;29;20114;-60
2023/10/04 10:26:22;;;;;;;12.65;4.72;;;;;;;;;;4919051;29;20115;-60
2023/10/04 10:28:58;;;;;;;10.60;4.30;;;;;;;;;;4905892;29;20046;-60
2023/10/04 10:31:26;;;;;;;12.20;4.30;;;;;;;;;;4934199;29;20043;-59
2023/10/04 10:33:54;;;;;;;13.68;3.65;;;;;;;;;;4936074;29;20031;-59
2023/10/04 10:36:23;;;;;;;14.70;4.25;;;;;;;;;;4917795;29;20057;-59
2023/10/04 10:38:54;;;;;;;11.77;4.53;;;;;;;;;;4919278;29;20107;-59
2023/10/04 10:41:49;;;;;;;10.45;3.70;;;;;;;;;;4936393;29;20067;-59
2023/10/04 10:44:16;;;;;;;14.68;4.05;;;;;;;;;;4917243;29;20555;-59
2023/10/04 10:47:07;;;;;;;11.05;3.85;;;;;;;;;;4935606;29;20058;-60
2023/10/04 10:50:01;;;;;;;7.32;3.00;;;;;;;;;;4935501;29;20054;-61
2023/10/04 10:52:34;;;;;;;7.80;3.30;;;;;;;;;;4936388;29;20171;-60
2023/10/04 10:55:03;;;;;;;12.20;3.65;;;;;;;;;;4934647;29;20042;-60
2023/10/04 10:57:29;;;;;;;10.10;2.90;;;;;;;;;;4947273;29;20031;-60
2023/10/04 10:59:56;;;;;;;12.68;3.45;;;;;;;;;;4947169;29;20043;-60
2023/10/04 11:02:23;;;;;;;9.65;3.60;;;;;;;;;;4934680;29;20485;-60
2023/10/04 11:04:50;;;;;;;10.13;3.30;;;;;;;;;;4935254;29;20067;-60
2023/10/04 11:07:17;;;;;;;8.25;3.38;;;;;;;;;;4936325;29;20485;-60
2023/10/04 11:09:48;;;;;;;15.10;4.05;;;;;;;;;;4933739;29;20568;-60
2023/10/04 11:12:17;;;;;;;9.88;3.35;;;;;;;;;;4938211;29;20055;-59
2023/10/04 11:14:43;;;;;;;9.35;3.55;;;;;;;;;;4936783;29;20083;-58
2023/10/04 11:17:10;;;;;;;9.50;3.50;;;;;;;;;;4919007;29;20110;-58
2023/10/04 11:19:36;;;;;;;9.82;3.20;;;;;;;;;;4935541;29;20039;-59
2023/10/04 11:22:02;;;;;;;9.45;2.97;;;;;;;;;;4919261;29;20032;-59
2023/10/04 11:24:29;;;;;;;12.32;3.45;;;;;;;;;;4936014;29;20047;-59
2023/10/04 11:26:56;;;;;;;7.68;3.08;;;;;;;;;;4935645;29;20445;-59
2023/10/04 11:29:26;;;;;;;5.95;2.63;;;;;;;;;;4920006;29;20031;-59
2023/10/04 11:31:52;;;;;;;7.17;2.57;;;;;;;;;;4932963;29;20044;-60
2023/10/04 11:34:17;;;;;;;10.30;3.80;;;;;;;;;;4944629;29;20033;-59
2023/10/04 11:36:47;;;;;;;10.95;3.85;;;;;;;;;;4934982;29;20043;-53
2023/10/04 11:39:18;;;;;;;8.80;3.40;;;;;;;;;;4936188;29;20087;-58
2023/10/04 11:41:50;;;;;;;9.10;3.00;;;;;;;;;;4935698;29;20489;-60
2023/10/04 11:44:18;;;;;;;8.73;3.13;;;;;;;;;;4935399;29;20366;-57
2023/10/04 11:46:58;;;;;;;7.75;3.25;;;;;;;;;;4934373;29;20055;-58
2023/10/04 11:49:24;;;;;;;7.60;3.03;;;;;;;;;;4937003;29;20123;-59
2023/10/04 11:51:53;;;;;;;8.20;2.90;;;;;;;;;;4938084;29;20158;-58
2023/10/04 11:54:19;;;;;;;8.75;2.70;;;;;;;;;;4944075;29;20042;-59
2023/10/04 11:56:44;;;;;;;9.55;2.88;;;;;;;;;;4900601;29;20040;-59
2023/10/04 11:59:10;;;;;;;8.95;3.30;;;;;;;;;;4916907;29;20450;-62
2023/10/04 12:01:46;;;;;;;9.48;3.22;;;;;;;;;;4935096;29;20035;-59
2023/10/04 12:04:14;;;;;;;9.48;2.90;;;;;;;;;;4939680;29;20322;-60
2023/10/04 12:06:39;;;;;;;8.38;3.22;;;;;;;;;;4934587;29;20042;-61
2023/10/04 12:09:07;;;;;;;8.13;3.17;;;;;;;;;;4935390;29;20114;-60
2023/10/04 12:11:38;;;;;;;8.50;2.90;;;;;;;;;;4935762;29;20039;-61
2023/10/04 12:14:09;;;;;;;7.45;2.42;;;;;;;;;;4934882;29;20036;-61
2023/10/04 12:16:37;;;;;;;;;;;;;;;;;;4929441;29;20112;-60
2023/10/04 12:19:03;;;;;;;8.00;2.90;;;;;;;;;;4917657;29;19997;-60
2023/10/04 12:21:28;;;;;;;6.72;2.78;;;;;;;;;;4931672;29;20488;-60
2023/10/04 12:23:54;;;;;;;7.88;2.95;;;;;;;;;;4934380;29;20126;-59
2023/10/04 12:26:20;;;;;;;6.88;2.30;;;;;;;;;;4933006;29;20058;-56
2023/10/04 12:28:48;;;;;;;6.28;2.80;;;;;;;;;;4932621;29;20056;-56
2023/10/04 12:31:13;;;;;;;8.05;2.65;;;;;;;;;;4933906;29;20027;-60
2023/10/04 12:33:39;;;;;;;9.80;3.70;;;;;;;;;;4937552;29;20051;-60
2023/10/04 12:36:07;;;;;;;5.45;2.75;;;;;;;;;;4932904;29;20035;-61
2023/10/04 12:38:34;;;;;;;7.50;3.50;;;;;;;;;;4934552;29;20032;-60
2023/10/04 12:40:59;;;;;;;7.38;2.80;;;;;;;;;;4934794;29;20042;-61
2023/10/04 12:43:25;;;;;;;9.38;3.45;;;;;;;;;;4932238;29;20024;-61
2023/10/04 12:45:53;;;;;;;8.20;3.30;;;;;;;;;;4931511;29;20057;-61
2023/10/04 12:48:22;;;;;;;10.77;3.85;;;;;;;;;;4933391;29;20035;-61
2023/10/04 12:50:48;;;;;;;8.32;3.50;;;;;;;;;;4933454;29;20050;-60
2023/10/04 12:53:17;;;;;;;9.35;3.90;;;;;;;;;;4935088;29;20401;-60
2023/10/04 12:55:53;;;;;;;9.05;3.45;;;;;;;;;;4916452;29;20036;-60
2023/10/04 12:58:20;;;;;;;9.77;3.63;;;;;;;;;;4934878;29;20038;-60
2023/10/04 13:00:52;;;;;;;9.35;3.30;;;;;;;;;;4934016;29;20536;-60
2023/10/04 13:03:18;;;;;;;9.50;3.63;;;;;;;;;;4909564;29;20460;-55
2023/10/04 13:05:44;;;;;;;6.63;2.92;;;;;;;;;;4938195;29;20084;-60
2023/10/04 13:08:15;;;;;;;9.80;3.80;;;;;;;;;;4935523;29;20039;-60
2023/10/04 13:10:41;;;;;;;10.77;4.28;;;;;;;;;;4927582;29;20083;-60
2023/10/04 13:13:07;;;;;;;8.57;3.35;;;;;;;;;;4914114;29;20068;-61
2023/10/04 13:15:33;;;;;;;11.27;3.60;;;;;;;;;;4914777;29;20448;-67
2023/10/04 13:17:59;;;;;;;9.20;3.58;;;;;;;;;;4914140;29;20028;-60
2023/10/04 13:20:28;;;;;;;8.30;3.70;;;;;;;;;;4915590;29;20036;-59
2023/10/04 13:22:56;;;;;;;9.00;3.13;;;;;;;;;;4912419;29;20078;-61
2023/10/04 13:25:24;;;;;;;10.65;3.53;;;;;;;;;;4897715;29;20028;-61
2023/10/04 13:27:50;;;;;;;7.53;2.97;;;;;;;;;;4897553;29;20047;-61
2023/10/04 13:30:16;;;;;;;8.18;3.40;;;;;;;;;;4914490;29;20024;-59
2023/10/04 13:32:47;;;;;;;9.27;3.20;;;;;;;;;;4912531;29;20036;-60
2023/10/04 13:35:16;;;;;;;11.88;3.67;;;;;;;;;;4915622;29;20063;-60
2023/10/04 13:37:44;;;;;;;7.88;2.75;;;;;;;;;;4914380;29;20056;-60
2023/10/04 13:40:19;;;;;;;9.55;3.13;;;;;;;;;;4916607;29;20028;-58
2023/10/04 13:42:45;;;;;;;8.50;3.35;;;;;;;;;;4918372;29;20036;-60
2023/10/04 13:45:13;;;;;;;7.90;3.20;;;;;;;;;;4902026;29;20371;-59
2023/10/04 13:47:39;;;;;;;8.25;3.10;;;;;;;;;;4917017;29;20084;-60
2023/10/04 13:50:05;;;;;;;11.40;3.97;;;;;;;;;;4918484;29;20107;-61
2023/10/04 13:52:30;;;;;;;8.52;3.03;;;;;;;;;;4918691;29;20541;-60
2023/10/04 13:54:56;;;;;;;9.90;3.53;;;;;;;;;;4916900;29;20151;-60
2023/10/04 13:57:21;;;;;;;9.57;3.40;;;;;;;;;;4929938;29;20047;-60
2023/10/04 13:59:47;;;;;;;9.40;3.40;;;;;;;;;;4918010;29;20461;-56
2023/10/04 14:02:13;;;;;;;8.35;3.50;;;;;;;;;;4918464;29;20032;-60
2023/10/04 14:04:39;;;;;;;8.60;3.42;;;;;;;;;;4900839;29;20393;-60
2023/10/04 14:07:06;;;;;;;8.77;3.38;;;;;;;;;;4900233;29;20032;-59
2023/10/04 14:09:32;;;;;;;8.93;3.78;;;;;;;;;;4921183;29;20086;-59
2023/10/04 14:11:58;;;;;;;11.98;3.50;;;;;;;;;;4953936;29;20058;-59
2023/10/04 14:14:23;;;;;;;10.05;3.05;;;;;;;;;;4941510;29;20031;-58
2023/10/04 14:16:49;;;;;;;9.35;3.78;;;;;;;;;;4932883;29;20486;-59
2023/10/04 14:19:14;;;;;;;8.90;3.40;;;;;;;;;;4918774;29;20039;-59
2023/10/04 14:21:40;;;;;;;7.82;3.45;;;;;;;;;;4934697;29;20040;-56
2023/10/04 14:24:06;;;;;;;10.00;3.63;;;;;;;;;;4935886;29;20385;-59
2023/10/04 14:26:34;;;;;;;20.13;10.23;;;;;;;;;;4936457;29;20035;-61
2023/10/04 14:29:00;;;;;;;10.82;4.65;;;;;;;;;;4936565;29;20607;-59
2023/10/04 14:31:28;;;;;;;13.32;6.13;;;;;;;;;;4919723;29;20112;-59
2023/10/04 14:33:56;;;;;;;15.98;5.85;;;;;;;;;;4918283;29;20027;-59
2023/10/04 14:36:22;;;;;;;14.27;5.15;;;;;;;;;;4915855;29;20472;-58
2023/10/04 14:38:48;;;;;;;13.70;6.13;;;;;;;;;;4936114;29;20024;-60
2023/10/04 14:41:15;;;;;;;13.93;6.95;;;;;;;;;;4936846;29;20062;-58
2023/10/04 14:43:41;;;;;;;11.20;3.60;;;;;;;;;;4919120;29;20024;-60